Terminal Aerodrome Forecast
Issued by NWS Greer, SC

Home | Current Version | Previous Version | Text Only | Print | Product List | Glossary On
Versions: 1 2 3 4 5 6 7 8 9 10 11 12 13 14 15 16 17 18 19 20 21 22 23 24 25 26 27 28 29 30 31 32
000
FTUS42 KGSP 300500 CCA
TAFAVL
TAF COR
KAVL 300558Z 3006/3106 21003KT P6SM SCT045
     FM300800 00000KT 3SM BR BKN017
      TEMPO 3008/3012 1/2SM FG BKN003
     FM301400 00000KT P6SM BKN250
     FM301800 18006KT P6SM BKN045
     FM310300 00000KT P6SM VCSH BKN045=

USA.gov is the U.S. government's official web portal to all federal, state and local government web resources and services.